createdAt,value
2018-05-04T00:02:48.453Z,14.33
2018-05-04T00:08:16.588Z,14.33
2018-05-04T00:13:44.732Z,12.70
2018-05-04T00:19:12.888Z,12.90
2018-05-04T00:24:41.036Z,13.30
2018-05-04T00:30:09.212Z,13.80
2018-05-04T00:35:37.371Z,11.97
2018-05-04T00:41:05.560Z,11.00
2018-05-04T00:46:33.718Z,10.00
2018-05-04T00:52:01.877Z,11.00
2018-05-04T00:57:30.090Z,11.33
2018-05-04T01:02:58.263Z,11.30
2018-05-04T01:08:27.197Z,10.10
2018-05-04T01:13:56.109Z,11.50
2018-05-04T01:19:24.253Z,11.03
2018-05-04T01:24:53.178Z,10.23
2018-05-04T01:30:21.311Z,10.90
2018-05-04T01:35:50.216Z,12.03
2018-05-04T01:41:18.356Z,10.13
2018-05-04T01:46:46.500Z,10.67
2018-05-04T01:52:14.913Z,9.97
2018-05-04T01:57:43.826Z,10.70
2018-05-04T02:03:11.979Z,10.80
2018-05-04T02:08:40.900Z,10.80
2018-05-04T02:14:09.046Z,10.93
2018-05-04T02:19:37.206Z,10.27
2018-05-04T02:25:05.364Z,9.63
2018-05-04T02:30:34.301Z,10.67
2018-05-04T02:36:03.218Z,10.80
2018-05-04T02:41:31.401Z,10.70
2018-05-04T02:46:59.576Z,10.87
2018-05-04T02:52:28.496Z,10.83
2018-05-04T02:57:56.651Z,11.13
2018-05-04T03:03:25.583Z,11.10
2018-05-04T03:08:54.494Z,10.37
2018-05-04T03:14:22.649Z,10.07
2018-05-04T03:19:50.800Z,12.47
2018-05-04T03:25:18.953Z,12.03
2018-05-04T03:30:47.139Z,12.07
2018-05-04T03:36:15.282Z,11.10
2018-05-04T03:41:43.423Z,12.20
2018-05-04T03:47:12.679Z,11.53
2018-05-04T03:52:41.624Z,11.83
2018-05-04T03:58:28.303Z,10.80
2018-05-04T04:04:15.221Z,11.10
2018-05-04T04:09:43.361Z,11.67
2018-05-04T04:15:13.278Z,12.20
2018-05-04T04:20:42.376Z,14.43
2018-05-04T04:26:10.527Z,14.40
2018-05-04T04:31:38.726Z,15.67
2018-05-04T04:37:06.892Z,16.97
2018-05-04T04:42:35.554Z,13.07
2018-05-04T04:48:04.494Z,13.40
2018-05-04T04:53:33.426Z,13.83
2018-05-04T04:59:01.743Z,13.30
2018-05-04T05:04:30.696Z,14.77
2018-05-04T05:09:58.846Z,15.80
2018-05-04T05:15:27.007Z,14.43
2018-05-04T05:20:55.144Z,13.90
2018-05-04T05:26:24.067Z,13.30
2018-05-04T05:31:52.214Z,15.30
2018-05-04T05:37:20.352Z,14.37
2018-05-04T05:42:48.502Z,14.60
2018-05-04T05:48:16.645Z,14.30
2018-05-04T05:53:44.793Z,14.30
2018-05-04T05:59:12.940Z,13.90
2018-05-04T06:04:41.093Z,14.07
2018-05-04T06:10:09.251Z,13.30
2018-05-04T06:15:37.384Z,13.50
2018-05-04T06:21:05.551Z,14.70
2018-05-04T06:26:33.701Z,14.47
2018-05-04T06:32:02.663Z,14.90
2018-05-04T06:37:30.824Z,13.73
2018-05-04T06:42:58.963Z,14.67
2018-05-04T06:48:27.885Z,14.40
2018-05-04T06:53:56.041Z,15.70
2018-05-04T06:59:25.040Z,14.90
2018-05-04T07:04:53.878Z,16.17
2018-05-04T07:10:22.087Z,14.63
2018-05-04T07:15:50.176Z,15.63
2018-05-04T07:21:18.329Z,14.90
2018-05-04T07:26:46.471Z,15.67
2018-05-04T07:32:14.634Z,15.57
2018-05-04T07:37:42.765Z,14.00
2018-05-04T07:43:10.914Z,15.20
2018-05-04T07:48:39.081Z,14.67
2018-05-04T07:54:07.223Z,13.47
2018-05-04T07:59:36.137Z,14.03
2018-05-04T08:05:04.322Z,14.43
2018-05-04T08:10:32.492Z,15.20
2018-05-04T08:16:00.641Z,14.90
2018-05-04T08:21:28.801Z,14.23
2018-05-04T08:26:57.723Z,15.53
2018-05-04T08:32:26.635Z,14.57
2018-05-04T08:37:59.513Z,15.07
2018-05-04T08:43:27.658Z,16.10
2018-05-04T08:48:56.561Z,15.50
2018-05-04T08:54:25.548Z,16.93
2018-05-04T08:59:53.614Z,16.80
2018-05-04T09:05:22.649Z,17.73
2018-05-04T09:10:50.678Z,17.50
2018-05-04T09:16:19.602Z,16.67
2018-05-04T09:21:48.528Z,19.00
2018-05-04T09:27:16.670Z,21.00
2018-05-04T09:32:45.576Z,20.07
2018-05-04T09:38:13.720Z,20.80
2018-05-04T09:43:42.659Z,21.93
2018-05-04T09:49:10.819Z,21.80
2018-05-04T09:54:39.711Z,23.93
2018-05-04T10:00:08.642Z,23.50
2018-05-04T10:05:36.788Z,22.23
2018-05-04T10:11:04.960Z,23.00
2018-05-04T10:16:33.242Z,22.33
2018-05-04T10:22:01.483Z,22.20
2018-05-04T10:27:29.560Z,21.23
2018-05-04T10:32:58.464Z,22.00
2018-05-04T10:38:26.669Z,23.70
2018-05-04T10:43:56.450Z,21.33
2018-05-04T10:49:24.609Z,21.10
2018-05-04T10:54:52.763Z,20.50
2018-05-04T11:00:20.909Z,20.30
2018-05-04T11:05:49.060Z,20.43
2018-05-04T11:11:17.230Z,20.27
2018-05-04T11:16:45.380Z,19.53
2018-05-04T11:22:14.285Z,18.73
2018-05-04T11:27:42.427Z,18.23
2018-05-04T11:33:10.586Z,18.93
2018-05-04T11:38:38.729Z,18.70
2018-05-04T11:44:06.892Z,19.10
2018-05-04T11:49:35.085Z,19.30
2018-05-04T11:55:03.214Z,20.20
2018-05-04T12:00:31.393Z,20.47
2018-05-04T12:05:59.561Z,19.67
2018-05-04T12:11:27.701Z,18.97
2018-05-04T12:16:56.607Z,23.83
2018-05-04T12:22:24.747Z,19.03
2018-05-04T12:27:52.887Z,21.07
2018-05-04T12:33:21.041Z,20.97
2018-05-04T12:38:49.232Z,21.87
2018-05-04T12:44:17.405Z,23.97
2018-05-04T12:49:45.560Z,23.90
2018-05-04T12:55:14.464Z,23.20
2018-05-04T13:00:42.617Z,21.60
2018-05-04T13:06:10.767Z,22.23
2018-05-04T13:11:38.903Z,21.10
2018-05-04T13:17:07.064Z,20.40
2018-05-04T13:22:35.234Z,19.87
2018-05-04T13:28:03.368Z,18.37
2018-05-04T13:33:31.542Z,17.67
2018-05-04T13:38:59.733Z,18.47
2018-05-04T13:44:27.873Z,18.17
2018-05-04T13:49:56.790Z,19.10
2018-05-04T13:55:24.943Z,19.87
2018-05-04T14:00:53.097Z,19.73
2018-05-04T14:06:21.243Z,18.10
2018-05-04T14:11:49.402Z,19.53
2018-05-04T14:17:17.560Z,19.27
2018-05-04T14:22:45.710Z,21.53
2018-05-04T14:28:13.872Z,18.30
2018-05-04T14:33:42.789Z,17.83
2018-05-04T14:39:11.714Z,25.67
2018-05-04T14:44:41.800Z,18.10
2018-05-04T14:50:10.738Z,17.27
2018-05-04T14:55:38.871Z,20.30
2018-05-04T15:01:07.160Z,19.47
2018-05-04T15:06:36.075Z,21.03
2018-05-04T15:12:05.171Z,22.50
2018-05-04T15:17:33.330Z,17.93
2018-05-04T15:23:01.482Z,17.50
2018-05-04T15:28:30.429Z,15.87
2018-05-04T15:33:59.395Z,16.60
2018-05-04T15:39:27.536Z,17.67
2018-05-04T15:44:59.006Z,16.77
2018-05-04T15:50:32.839Z,16.63
2018-05-04T15:56:01.069Z,17.30
2018-05-04T16:01:29.268Z,16.30
2018-05-04T16:06:58.195Z,17.17
2018-05-04T16:12:26.379Z,14.03
2018-05-04T16:17:54.535Z,18.43
2018-05-04T16:23:22.690Z,15.93
2018-05-04T16:28:51.856Z,15.27
2018-05-04T16:34:20.758Z,15.10
2018-05-04T16:39:49.701Z,13.70
2018-05-04T16:45:18.614Z,16.33
2018-05-04T16:50:47.793Z,14.10
2018-05-04T16:56:15.944Z,15.40
2018-05-04T17:01:45.098Z,17.23
2018-05-04T17:07:14.249Z,17.10
2018-05-04T17:12:42.407Z,16.00
2018-05-04T17:18:10.562Z,16.00
2018-05-04T17:23:38.749Z,16.07
2018-05-04T17:29:07.030Z,16.70
2018-05-04T17:34:35.172Z,16.57
2018-05-04T17:40:06.089Z,17.43
2018-05-04T17:45:34.404Z,18.93
2018-05-04T17:51:02.603Z,17.37
2018-05-04T17:56:31.705Z,27.47
2018-05-04T18:02:00.889Z,15.73
2018-05-04T18:07:30.785Z,18.80
2018-05-04T18:13:01.707Z,20.47
2018-05-04T18:18:32.604Z,18.40
2018-05-04T18:24:01.310Z,19.40
2018-05-04T18:29:29.648Z,19.60
2018-05-04T18:34:57.817Z,17.30
2018-05-04T18:40:25.957Z,27.10
2018-05-04T18:45:54.877Z,23.97
2018-05-04T18:51:23.003Z,24.10
2018-05-04T18:56:51.169Z,23.87
2018-05-04T19:02:24.962Z,21.17
2018-05-04T19:07:53.095Z,21.00
2018-05-04T19:13:21.248Z,20.70
2018-05-04T19:18:52.226Z,21.23
2018-05-04T19:24:20.759Z,24.87
2018-05-04T19:29:48.904Z,23.63
2018-05-04T19:35:17.058Z,24.10
2018-05-04T19:40:47.208Z,28.30
2018-05-04T19:46:16.170Z,39.33
2018-05-04T19:51:50.699Z,26.27
2018-05-04T19:57:18.876Z,24.23
2018-05-04T20:02:47.045Z,24.20
2018-05-04T20:08:15.970Z,21.00
2018-05-04T20:13:44.109Z,23.83
2018-05-04T20:19:13.978Z,22.73
2018-05-04T20:24:42.891Z,25.57
2018-05-04T20:30:20.919Z,24.50
2018-05-04T20:35:49.072Z,24.03
2018-05-04T20:41:17.225Z,24.80
2018-05-04T20:46:49.541Z,24.80
2018-05-04T20:52:30.306Z,25.23
2018-05-04T20:57:58.444Z,25.80
2018-05-04T21:03:29.384Z,26.63
2018-05-04T21:08:57.528Z,27.27
2018-05-04T21:14:27.634Z,26.10
2018-05-04T21:19:56.644Z,26.90
2018-05-04T21:25:25.512Z,26.50
2018-05-04T21:30:54.643Z,25.87
2018-05-04T21:36:31.641Z,26.60
2018-05-04T21:41:59.800Z,27.80
2018-05-04T21:47:27.958Z,26.00
2018-05-04T21:52:56.118Z,29.90
2018-05-04T21:58:28.231Z,26.70
2018-05-04T22:03:57.153Z,25.97
2018-05-04T22:09:25.301Z,27.60
2018-05-04T22:14:54.233Z,27.67
2018-05-04T22:20:30.957Z,28.30
2018-05-04T22:25:59.902Z,28.10
2018-05-04T22:31:28.074Z,29.17
2018-05-04T22:36:57.160Z,29.47
2018-05-04T22:42:26.085Z,29.30
2018-05-04T22:47:55.004Z,25.73
2018-05-04T22:53:23.135Z,30.87
2018-05-04T22:58:51.296Z,30.80
2018-05-04T23:04:19.445Z,28.07
2018-05-04T23:09:47.578Z,29.23
2018-05-04T23:15:15.723Z,30.50
2018-05-04T23:20:44.631Z,30.63
2018-05-04T23:26:12.779Z,30.23
2018-05-04T23:31:40.930Z,30.20
2018-05-04T23:37:09.068Z,31.23
2018-05-04T23:42:37.990Z,31.10
2018-05-04T23:48:06.140Z,28.33
2018-05-04T23:53:34.282Z,30.53
2018-05-04T23:59:02.436Z,26.67
